Time;durP1;ratioP1;P1;durP2;ratioP2;P2;SDS_P1;SDS_P2;PMS_P1;PMS_P2;Temp;Humidity;BMP_temperature;BMP_pressure;BME280_temperature;BME280_humidity;BME280_pressure;Samples;Min_cycle;Max_cycle;Signal;HPM_P1;HPM_P2
2023/07/18 13:58:06;;;;;;;10.05;3.80;;;;;;;;;;5062762;24;20494;-75
2023/07/18 14:01:47;;;;;;;13.85;4.03;;;;;;;;;;4843314;29;20045;-76
2023/07/18 14:05:27;;;;;;;15.95;4.30;;;;;;;;;;4851162;29;20516;-76
2023/07/18 14:09:07;;;;;;;14.63;4.22;;;;;;;;;;4842707;29;20045;-77
2023/07/18 14:12:48;;;;;;;12.18;4.07;;;;;;;;;;4848432;29;20619;-78
2023/07/18 14:16:28;;;;;;;12.32;3.55;;;;;;;;;;4845942;29;20410;-76
2023/07/18 14:20:08;;;;;;;12.68;3.88;;;;;;;;;;4844461;29;20581;-78
2023/07/18 14:23:49;;;;;;;10.52;3.92;;;;;;;;;;4845485;29;20140;-78
2023/07/18 14:27:29;;;;;;;23.42;4.40;;;;;;;;;;4842886;29;20456;-69
2023/07/18 14:31:09;;;;;;;9.95;4.10;;;;;;;;;;4844949;29;20114;-78
2023/07/18 14:34:50;;;;;;;12.13;3.80;;;;;;;;;;4850699;29;20101;-75
2023/07/18 14:38:30;;;;;;;14.52;3.50;;;;;;;;;;4847138;29;20045;-75
2023/07/18 14:42:10;;;;;;;12.00;3.83;;;;;;;;;;4842265;29;20110;-76
2023/07/18 14:45:51;;;;;;;19.40;4.38;;;;;;;;;;4842846;29;20060;-72
2023/07/18 14:49:31;;;;;;;9.68;3.70;;;;;;;;;;4846342;29;20042;-75
2023/07/18 14:53:11;;;;;;;14.57;3.53;;;;;;;;;;4842293;29;20569;-73
2023/07/18 14:56:52;;;;;;;11.85;4.13;;;;;;;;;;4845134;29;20095;-71
2023/07/18 15:00:33;;;;;;;13.23;4.30;;;;;;;;;;4847179;29;20073;-72
2023/07/18 15:04:13;;;;;;;14.15;4.20;;;;;;;;;;4850651;29;20045;-73
2023/07/18 15:07:54;;;;;;;16.17;3.72;;;;;;;;;;4847189;29;20569;-75
2023/07/18 15:11:34;;;;;;;17.10;3.72;;;;;;;;;;4840878;29;20046;-73
2023/07/18 15:15:14;;;;;;;13.85;3.92;;;;;;;;;;4840282;29;20048;-76
2023/07/18 15:18:55;;;;;;;9.68;3.72;;;;;;;;;;4847660;29;20049;-77
2023/07/18 15:22:36;;;;;;;14.20;4.00;;;;;;;;;;4839623;29;20078;-75
2023/07/18 15:26:17;;;;;;;13.45;3.67;;;;;;;;;;4841686;29;20138;-72
2023/07/18 15:29:57;;;;;;;16.15;4.00;;;;;;;;;;4841602;29;20133;-74
2023/07/18 15:33:37;;;;;;;13.25;4.00;;;;;;;;;;4847390;29;20458;-74
2023/07/18 15:37:18;;;;;;;18.48;4.30;;;;;;;;;;4849848;29;20130;-76
2023/07/18 15:40:58;;;;;;;18.75;3.65;;;;;;;;;;4844244;29;20053;-73
2023/07/18 15:44:38;;;;;;;15.90;4.03;;;;;;;;;;4840966;29;20366;-73
2023/07/18 15:48:18;;;;;;;17.67;3.67;;;;;;;;;;4834611;29;20081;-74
2023/07/18 15:51:59;;;;;;;16.08;4.30;;;;;;;;;;4839448;29;20049;-73
2023/07/18 15:55:39;;;;;;;13.13;3.33;;;;;;;;;;4834840;29;20061;-72
2023/07/18 15:59:20;;;;;;;20.65;4.43;;;;;;;;;;4849330;29;20402;-75
2023/07/18 16:03:00;;;;;;;12.27;3.90;;;;;;;;;;4838967;29;20058;-75
2023/07/18 16:06:41;;;;;;;11.18;4.10;;;;;;;;;;4840550;29;20053;-72
2023/07/18 16:10:27;;;;;;;12.95;4.05;;;;;;;;;;4847604;29;20066;-76
2023/07/18 16:14:07;;;;;;;16.00;4.22;;;;;;;;;;4848856;29;20415;-78
2023/07/18 16:17:48;;;;;;;13.43;3.70;;;;;;;;;;4843468;29;20057;-76
2023/07/18 16:21:28;;;;;;;19.85;4.00;;;;;;;;;;4846633;29;20410;-74
2023/07/18 16:25:09;;;;;;;13.73;3.72;;;;;;;;;;4847700;29;20069;-79
2023/07/18 16:28:49;;;;;;;14.70;4.15;;;;;;;;;;4853426;29;20599;-75
2023/07/18 16:32:29;;;;;;;14.63;3.85;;;;;;;;;;4858133;29;20042;-76
2023/07/18 16:36:09;;;;;;;15.50;4.43;;;;;;;;;;4847052;29;20045;-75
2023/07/18 16:39:51;;;;;;;12.40;4.15;;;;;;;;;;4845655;29;20276;-71
2023/07/18 16:43:30;;;;;;;15.93;3.72;;;;;;;;;;4840086;29;20077;-72
2023/07/18 16:47:10;;;;;;;16.67;4.28;;;;;;;;;;4847434;29;20064;-72
2023/07/18 16:50:52;;;;;;;18.80;4.05;;;;;;;;;;4853817;29;20045;-74
2023/07/18 16:54:32;;;;;;;12.13;4.15;;;;;;;;;;4852243;29;20049;-71
2023/07/18 16:58:14;;;;;;;17.25;3.92;;;;;;;;;;4842743;29;20565;-70
2023/07/18 17:01:54;;;;;;;12.85;4.20;;;;;;;;;;4848271;29;20451;-70
2023/07/18 17:05:34;;;;;;;11.82;4.20;;;;;;;;;;4847851;29;20217;-73
2023/07/18 17:09:16;;;;;;;15.32;4.30;;;;;;;;;;4850034;29;20472;-72
2023/07/18 17:12:55;;;;;;;14.52;4.18;;;;;;;;;;4848764;29;20133;-73
2023/07/18 17:16:36;;;;;;;22.77;5.43;;;;;;;;;;4853112;29;20065;-73
2023/07/18 17:20:17;;;;;;;16.58;4.25;;;;;;;;;;4838020;29;20443;-73
2023/07/18 17:23:58;;;;;;;17.75;4.68;;;;;;;;;;4841816;29;20516;-71
2023/07/18 17:27:40;;;;;;;13.05;3.97;;;;;;;;;;4844990;29;20125;-72
2023/07/18 17:31:21;;;;;;;16.15;4.75;;;;;;;;;;4841537;29;20054;-70
2023/07/18 17:35:02;;;;;;;15.57;4.10;;;;;;;;;;4849244;29;20049;-70
2023/07/18 17:38:43;;;;;;;16.05;4.15;;;;;;;;;;4844357;29;20049;-73
2023/07/18 17:42:23;;;;;;;15.90;4.50;;;;;;;;;;4851970;29;20077;-71
2023/07/18 17:46:03;;;;;;;18.48;4.53;;;;;;;;;;4847544;29;20143;-76
2023/07/18 17:49:43;;;;;;;15.88;4.47;;;;;;;;;;4848480;29;20142;-73
2023/07/18 17:53:25;;;;;;;13.90;4.45;;;;;;;;;;4847444;29;20049;-74
2023/07/18 17:57:05;;;;;;;17.17;5.30;;;;;;;;;;4849030;29;20134;-75
2023/07/18 18:00:46;;;;;;;16.80;4.43;;;;;;;;;;4860320;29;20516;-78
2023/07/18 18:04:27;;;;;;;11.93;4.07;;;;;;;;;;4864862;29;20149;-76
2023/07/18 18:08:08;;;;;;;19.35;4.70;;;;;;;;;;4854404;29;20451;-77
2023/07/18 18:11:49;;;;;;;17.45;5.28;;;;;;;;;;4858525;29;20049;-78
2023/07/18 18:15:29;;;;;;;14.90;4.72;;;;;;;;;;4858617;29;20114;-79
2023/07/18 18:19:09;;;;;;;13.60;4.88;;;;;;;;;;4863532;29;20057;-79
2023/07/18 18:22:50;;;;;;;14.63;4.65;;;;;;;;;;4852414;29;20490;-73
2023/07/18 18:26:30;;;;;;;16.15;5.15;;;;;;;;;;4851705;29;20053;-77
2023/07/18 18:30:10;;;;;;;16.20;5.65;;;;;;;;;;4857269;29;20092;-79
2023/07/18 18:33:51;;;;;;;14.20;4.63;;;;;;;;;;4849094;29;20050;-68
2023/07/18 18:37:32;;;;;;;16.25;4.97;;;;;;;;;;4841051;29;20136;-69
2023/07/18 18:41:14;;;;;;;20.48;5.68;;;;;;;;;;4845234;29;20510;-71
2023/07/18 18:44:54;;;;;;;16.80;5.05;;;;;;;;;;4844104;29;20053;-72
2023/07/18 18:48:35;;;;;;;14.70;5.30;;;;;;;;;;4844724;29;20049;-70
2023/07/18 18:52:15;;;;;;;20.33;5.45;;;;;;;;;;4841271;29;20045;-73
2023/07/18 18:55:56;;;;;;;12.45;5.40;;;;;;;;;;4844708;29;20419;-68
2023/07/18 18:59:37;;;;;;;17.35;5.53;;;;;;;;;;4848695;29;20053;-68
2023/07/18 19:03:16;;;;;;;16.42;5.15;;;;;;;;;;4850002;29;20053;-70
2023/07/18 19:06:56;;;;;;;20.60;4.72;;;;;;;;;;4841259;29;20189;-64
2023/07/18 19:10:37;;;;;;;19.60;5.20;;;;;;;;;;4843112;29;20118;-66
2023/07/18 19:14:17;;;;;;;17.45;5.55;;;;;;;;;;4849437;29;20459;-63
2023/07/18 19:18:13;;;;;;;13.18;4.43;;;;;;;;;;4851587;29;20129;-67
2023/07/18 19:21:53;;;;;;;13.07;4.95;;;;;;;;;;4855242;29;20054;-66
2023/07/18 19:25:34;;;;;;;18.63;5.55;;;;;;;;;;4841368;29;20072;-67
2023/07/18 19:29:15;;;;;;;16.92;5.35;;;;;;;;;;4845832;29;20066;-70
2023/07/18 19:32:54;;;;;;;15.43;5.43;;;;;;;;;;4840163;29;20426;-74
2023/07/18 19:36:35;;;;;;;15.45;5.25;;;;;;;;;;4842883;29;20506;-76
2023/07/18 19:40:16;;;;;;;18.00;5.60;;;;;;;;;;4844732;29;20137;-73
2023/07/18 19:43:55;;;;;;;22.17;5.20;;;;;;;;;;4853236;29;20050;-74
2023/07/18 19:47:36;;;;;;;12.27;5.05;;;;;;;;;;4847794;29;20057;-74
2023/07/18 19:51:16;;;;;;;13.02;5.53;;;;;;;;;;4843564;29;20091;-76
2023/07/18 19:54:56;;;;;;;19.77;6.13;;;;;;;;;;4838258;29;20530;-72
2023/07/18 19:58:36;;;;;;;19.88;6.70;;;;;;;;;;4855558;29;20116;-75
2023/07/18 20:02:17;;;;;;;16.15;6.60;;;;;;;;;;4855934;29;20064;-80
2023/07/18 20:05:58;;;;;;;18.17;6.30;;;;;;;;;;4840119;29;20137;-78
2023/07/18 20:09:38;;;;;;;14.48;6.75;;;;;;;;;;4847849;29;20053;-76
2023/07/18 20:13:18;;;;;;;15.05;6.72;;;;;;;;;;4840263;29;20414;-76
2023/07/18 20:16:58;;;;;;;19.52;6.32;;;;;;;;;;4847084;29;20089;-75
2023/07/18 20:20:40;;;;;;;24.40;7.10;;;;;;;;;;4837708;29;20042;-74
2023/07/18 20:24:19;;;;;;;18.98;6.55;;;;;;;;;;4846291;29;20285;-75
2023/07/18 20:28:00;;;;;;;13.77;6.03;;;;;;;;;;4847978;29;20562;-80
2023/07/18 20:31:40;;;;;;;15.30;6.15;;;;;;;;;;4865715;29;20044;-82
2023/07/18 20:35:20;;;;;;;14.80;6.65;;;;;;;;;;4871638;29;20046;-77
2023/07/18 20:39:00;;;;;;;19.23;6.30;;;;;;;;;;4864837;29;20045;-80
2023/07/18 20:42:41;;;;;;;16.77;6.15;;;;;;;;;;4875131;29;20097;-80
2023/07/18 20:46:34;;;;;;;24.48;6.75;;;;;;;;;;4873169;29;20049;-79
2023/07/18 20:50:14;;;;;;;17.42;6.65;;;;;;;;;;4865211;29;20034;-79
2023/07/18 20:53:54;;;;;;;23.77;6.75;;;;;;;;;;4862749;29;20052;-81
2023/07/18 20:57:35;;;;;;;18.42;6.82;;;;;;;;;;4856640;29;20057;-79
2023/07/18 21:01:15;;;;;;;19.58;6.70;;;;;;;;;;4855904;29;20412;-78
2023/07/18 21:04:37;;;;;;;17.85;6.70;;;;;;;;;;4857403;29;20049;-82
2023/07/18 21:08:18;;;;;;;21.45;6.90;;;;;;;;;;4862175;29;20061;-80
2023/07/18 21:11:58;;;;;;;20.73;7.00;;;;;;;;;;4856169;29;20145;-79
2023/07/18 21:15:39;;;;;;;17.00;6.22;;;;;;;;;;4864089;29;20052;-78
2023/07/18 21:19:19;;;;;;;15.43;6.20;;;;;;;;;;4867310;29;20088;-78
2023/07/18 21:22:59;;;;;;;23.65;6.65;;;;;;;;;;4869056;29;20032;-80
2023/07/18 21:26:40;;;;;;;19.23;6.65;;;;;;;;;;4875607;29;20042;-80
2023/07/18 21:30:20;;;;;;;21.10;6.35;;;;;;;;;;4864590;29;20071;-80
2023/07/18 21:34:00;;;;;;;18.90;6.40;;;;;;;;;;4871351;29;20046;-78
2023/07/18 21:37:41;;;;;;;16.77;6.20;;;;;;;;;;4877589;29;20050;-80
2023/07/18 21:41:21;;;;;;;16.35;6.50;;;;;;;;;;4863700;29;20069;-79
2023/07/18 21:44:21;;;;;;;20.00;6.97;;;;;;;;;;4870107;29;20486;-80
2023/07/18 21:47:27;;;;;;;21.58;6.82;;;;;;;;;;4868427;29;20158;-77
2023/07/18 21:50:42;;;;;;;20.90;6.78;;;;;;;;;;4866059;29;20041;-80
2023/07/18 21:54:22;;;;;;;16.92;6.15;;;;;;;;;;4860997;29;20041;-80
2023/07/18 21:58:02;;;;;;;16.38;7.30;;;;;;;;;;4860740;29;20471;-81
2023/07/18 22:01:43;;;;;;;21.48;6.38;;;;;;;;;;4867349;29;20064;-82
2023/07/18 22:05:23;;;;;;;15.05;6.32;;;;;;;;;;4862199;29;20434;-82
2023/07/18 22:09:04;;;;;;;16.63;6.88;;;;;;;;;;4864523;29;20060;-81
2023/07/18 22:12:44;;;;;;;21.17;7.22;;;;;;;;;;4856175;29;20050;-78
2023/07/18 22:16:25;;;;;;;21.90;7.03;;;;;;;;;;4868600;29;20049;-82
2023/07/18 22:20:05;;;;;;;16.15;6.40;;;;;;;;;;4851084;29;20058;-79
2023/07/18 22:23:45;;;;;;;21.15;7.35;;;;;;;;;;4848691;29;20520;-72
2023/07/18 22:27:26;;;;;;;20.23;7.38;;;;;;;;;;4843652;29;20572;-72
2023/07/18 22:31:06;;;;;;;18.55;6.68;;;;;;;;;;4850721;29;20132;-72
2023/07/18 22:34:46;;;;;;;20.42;6.60;;;;;;;;;;4849779;29;20041;-76
2023/07/18 22:38:27;;;;;;;18.38;7.47;;;;;;;;;;4848826;29;20587;-76
2023/07/18 22:42:07;;;;;;;18.23;7.38;;;;;;;;;;4853341;29;20193;-74
2023/07/18 22:45:48;;;;;;;19.40;7.10;;;;;;;;;;4844592;29;20040;-76
2023/07/18 22:49:28;;;;;;;22.73;7.78;;;;;;;;;;4842981;29;20046;-78
2023/07/18 22:53:08;;;;;;;16.52;7.47;;;;;;;;;;4852981;29;20049;-78
2023/07/18 22:56:34;;;;;;;17.90;7.80;;;;;;;;;;4850405;29;20062;-78
2023/07/18 22:59:17;;;;;;;19.50;7.82;;;;;;;;;;4860117;29;20053;-77
2023/07/18 23:02:23;;;;;;;18.13;7.90;;;;;;;;;;4857813;29;20065;-79
2023/07/18 23:05:28;;;;;;;15.95;7.57;;;;;;;;;;4852694;29;20061;-79
2023/07/18 23:09:09;;;;;;;18.60;7.72;;;;;;;;;;4845426;29;21232;-79
2023/07/18 23:12:49;;;;;;;24.45;8.82;;;;;;;;;;4860395;29;20057;-76
2023/07/18 23:16:29;;;;;;;24.90;8.40;;;;;;;;;;4857882;29;20046;-77
2023/07/18 23:20:10;;;;;;;21.30;9.02;;;;;;;;;;4864659;29;20042;-78
2023/07/18 23:23:50;;;;;;;19.00;9.07;;;;;;;;;;4842350;29;20054;-71
2023/07/18 23:27:32;;;;;;;25.13;9.38;;;;;;;;;;4854114;29;20060;-72
2023/07/18 23:31:11;;;;;;;20.83;10.35;;;;;;;;;;4853989;29;20092;-71
2023/07/18 23:34:52;;;;;;;28.58;10.68;;;;;;;;;;4848757;29;20070;-73
2023/07/18 23:38:32;;;;;;;33.20;11.00;;;;;;;;;;4846761;29;20050;-72
2023/07/18 23:42:13;;;;;;;25.95;10.55;;;;;;;;;;4847699;29;20410;-70
2023/07/18 23:45:56;;;;;;;24.30;10.10;;;;;;;;;;4850627;29;20046;-71
2023/07/18 23:49:33;;;;;;;22.40;10.93;;;;;;;;;;4847410;29;20053;-71
2023/07/18 23:53:14;;;;;;;27.40;11.27;;;;;;;;;;4845722;29;20041;-71
2023/07/18 23:56:55;;;;;;;23.23;10.95;;;;;;;;;;4843984;29;20106;-71
